CCA507 ZSPD-VHHH

Flight info

Callsign CCA507
Flight time 2h 10m
Altitude 32100
Route HSN W13 BEGMO M503 TOLAK/N0469F321 M503 LELIM V591 ABBEY
Aircraft A321/M-SDE3FGHIRWY/LB1

Departure

Time 2026-05-04 10:36
Airport Shanghai Pudong International Airport (ZSPD)

Arrival

Time 2026-05-04 12:46
Airport Hong Kong International Airport (VHHH)
Time Latitude Longitude Altitude Speed Heading
2026-05-04 10:16 31.14112 121.81195 23 ft 0 kts 252°
2026-05-04 10:27 31.14118 121.81219 24 ft 4 kts 252°
2026-05-04 10:27 31.14127 121.81249 26 ft 4 kts 252°
2026-05-04 10:27 31.14134 121.81274 24 ft 4 kts 271°
2026-05-04 10:27 31.14132 121.81290 24 ft 4 kts 309°
2026-05-04 10:28 31.14117 121.81303 24 ft 4 kts 338°
2026-05-04 10:28 31.14105 121.81309 25 ft 1 kts 342°
2026-05-04 10:28 31.14104 121.81309 25 ft 0 kts 342°
2026-05-04 10:30 31.14106 121.81308 25 ft 1 kts 342°
2026-05-04 10:30 31.14119 121.81303 24 ft 4 kts 342°
2026-05-04 10:30 31.14165 121.81286 23 ft 10 kts 342°
2026-05-04 10:30 31.14252 121.81253 23 ft 15 kts 342°
2026-05-04 10:31 31.14352 121.81221 23 ft 14 kts
2026-05-04 10:31 31.14397 121.81313 23 ft 17 kts 72°
2026-05-04 10:32 31.15051 121.81159 23 ft 17 kts 342°
2026-05-04 10:33 31.15173 121.81112 24 ft 20 kts 342°
2026-05-04 10:33 31.15319 121.81058 23 ft 23 kts 342°
2026-05-04 10:33 31.15470 121.81000 22 ft 22 kts 342°
2026-05-04 10:33 31.15615 121.80946 22 ft 21 kts 342°
2026-05-04 10:34 31.15740 121.80900 22 ft 16 kts 340°
2026-05-04 10:34 31.15807 121.80911 22 ft 10 kts 48°
2026-05-04 10:34 31.15824 121.80960 22 ft 10 kts 73°
2026-05-04 10:34 31.15853 121.81069 22 ft 16 kts 71°
2026-05-04 10:35 31.15846 121.81200 23 ft 11 kts 148°
2026-05-04 10:35 31.15800 121.81218 22 ft 11 kts 162°
2026-05-04 10:35 31.15446 121.81352 22 ft 83 kts 162°
2026-05-04 10:35 31.14715 121.81627 20 ft 136 kts 162°
2026-05-04 10:36 31.13682 121.82019 40 ft 173 kts 161°
2026-05-04 10:36 31.12891 121.82315 300 ft 178 kts 160°
2026-05-04 10:36 31.11709 121.82766 897 ft 179 kts 161°
2026-05-04 10:36 31.10524 121.83235 1495 ft 180 kts 163°
2026-05-04 10:37 31.09342 121.83823 1996 ft 196 kts 150°
2026-05-04 10:37 31.08174 121.84804 2283 ft 219 kts 145°
2026-05-04 10:37 31.06894 121.85892 2588 ft 236 kts 145°
2026-05-04 10:37 31.05492 121.87077 2742 ft 262 kts 145°
2026-05-04 10:39 30.96648 121.96243 7008 ft 299 kts 135°
2026-05-04 10:39 30.95178 121.97974 7704 ft 302 kts 135°
2026-05-04 10:39 30.93687 121.99722 8397 ft 306 kts 136°
2026-05-04 10:40 30.92175 122.01485 9065 ft 310 kts 136°
2026-05-04 10:40 30.90640 122.03272 9736 ft 314 kts 137°
2026-05-04 10:40 30.89083 122.05080 10316 ft 321 kts 137°
2026-05-04 10:40 30.87539 122.06867 10449 ft 341 kts 137°
2026-05-04 10:41 30.85804 122.08875 10566 ft 362 kts 137°
2026-05-04 10:41 30.83967 122.10997 10689 ft 382 kts 137°
2026-05-04 10:41 30.82033 122.13234 10817 ft 401 kts 137°
2026-05-04 10:41 30.80016 122.15568 10950 ft 417 kts 137°
2026-05-04 10:42 30.77938 122.17976 11315 ft 425 kts 137°
2026-05-04 10:42 30.75836 122.20414 11808 ft 429 kts 137°
2026-05-04 10:42 30.73718 122.22873 12325 ft 432 kts 137°
2026-05-04 10:42 30.71585 122.25342 12839 ft 434 kts 137°
2026-05-04 10:43 30.69435 122.27828 13353 ft 437 kts 138°
2026-05-04 10:44 30.51606 122.39701 16476 ft 427 kts 187°
2026-05-04 10:45 30.48643 122.39529 16932 ft 427 kts 188°
2026-05-04 10:45 30.45668 122.39348 17401 ft 429 kts 188°
2026-05-04 10:45 30.42681 122.39172 17868 ft 431 kts 188°
2026-05-04 10:45 30.39680 122.39000 18318 ft 432 kts 188°
2026-05-04 10:46 30.36669 122.38828 18702 ft 434 kts 189°
2026-05-04 10:46 30.33644 122.38655 19064 ft 436 kts 189°
2026-05-04 10:46 30.30608 122.38481 19417 ft 438 kts 189°
2026-05-04 10:46 30.27624 122.38311 19758 ft 440 kts 189°
2026-05-04 10:47 30.24497 122.38133 20117 ft 442 kts 189°
2026-05-04 10:47 30.21423 122.37956 20476 ft 443 kts 189°
2026-05-04 10:47 30.18335 122.37777 20817 ft 445 kts 189°
2026-05-04 10:47 30.15235 122.37597 21149 ft 447 kts 189°
2026-05-04 10:49 29.93182 122.36516 23324 ft 466 kts 183°
2026-05-04 10:49 29.89939 122.37064 23623 ft 476 kts 176°
2026-05-04 10:50 29.86689 122.37826 23871 ft 478 kts 176°
2026-05-04 10:51 29.63928 122.43153 25986 ft 474 kts 177°
2026-05-04 10:52 29.60693 122.43900 26305 ft 474 kts 177°
2026-05-04 10:52 29.57463 122.44650 26628 ft 473 kts 177°
2026-05-04 10:52 29.54238 122.45400 26953 ft 473 kts 177°
2026-05-04 10:54 29.31802 122.50611 29202 ft 468 kts 178°
2026-05-04 10:54 29.28610 122.51345 29529 ft 467 kts 178°
2026-05-04 10:56 29.08475 122.46531 31618 ft 412 kts 214°
2026-05-04 10:56 29.05934 122.45035 31959 ft 410 kts 214°
2026-05-04 10:56 29.03404 122.43546 32212 ft 408 kts 214°
2026-05-04 10:57 29.00885 122.42064 32262 ft 407 kts 214°
2026-05-04 10:57 28.95862 122.39114 32282 ft 406 kts 214°
2026-05-04 10:58 28.90837 122.36163 32263 ft 406 kts 214°
2026-05-04 10:58 28.85821 122.33211 32273 ft 406 kts 214°
2026-05-04 10:59 28.80799 122.30263 32271 ft 406 kts 214°
2026-05-04 10:59 28.75774 122.27325 32267 ft 406 kts 214°
2026-05-04 11:00 28.70749 122.24387 32261 ft 406 kts 214°
2026-05-04 11:02 28.50631 122.12654 32248 ft 406 kts 213°
2026-05-04 11:05 28.12739 121.90682 32255 ft 410 kts 213°
2026-05-04 11:06 28.07657 121.87754 32272 ft 410 kts 213°
2026-05-04 11:06 28.02574 121.84821 32268 ft 410 kts 213°
2026-05-04 11:10 27.67432 121.63230 32284 ft 412 kts 214°
2026-05-04 11:12 27.47263 121.50859 32279 ft 413 kts 214°
2026-05-04 11:12 27.42203 121.47777 32280 ft 413 kts 214°
2026-05-04 11:13 27.37139 121.44695 32285 ft 414 kts 214°
2026-05-04 11:13 27.32113 121.41633 32282 ft 414 kts 214°
2026-05-04 11:16 27.06736 121.26229 32277 ft 415 kts 214°
2026-05-04 11:16 27.01648 121.23151 32271 ft 415 kts 214°
2026-05-04 11:17 26.96565 121.20083 32270 ft 415 kts 214°
2026-05-04 11:19 26.77043 121.08319 32274 ft 416 kts 214°
2026-05-04 11:19 26.71085 121.04733 32274 ft 416 kts 214°
2026-05-04 11:20 26.65987 121.01657 32276 ft 417 kts 214°
2026-05-04 11:20 26.61746 120.99106 32280 ft 417 kts 213°
2026-05-04 11:22 26.41341 120.86862 32271 ft 416 kts 213°
2026-05-04 11:23 26.36239 120.83810 32266 ft 416 kts 213°
2026-05-04 11:25 26.18375 120.73135 32242 ft 417 kts 213°
2026-05-04 11:25 26.13249 120.70076 32240 ft 418 kts 213°
2026-05-04 11:27 25.90081 120.56310 32242 ft 421 kts 213°
2026-05-04 11:28 25.84913 120.53248 32238 ft 421 kts 213°
2026-05-04 11:28 25.79746 120.50196 32230 ft 421 kts 213°
2026-05-04 11:29 25.74566 120.47137 32236 ft 422 kts 213°
2026-05-04 11:29 25.69394 120.44072 32232 ft 422 kts 213°
2026-05-04 11:33 25.36226 120.18178 32221 ft 417 kts 221°
2026-05-04 11:33 25.31586 120.14332 32218 ft 417 kts 221°
2026-05-04 11:34 25.26935 120.10488 32216 ft 417 kts 221°
2026-05-04 11:34 25.22280 120.06649 32213 ft 418 kts 221°
2026-05-04 11:35 25.17628 120.02795 32216 ft 418 kts 221°
2026-05-04 11:35 25.12967 119.98947 32210 ft 419 kts 221°
2026-05-04 11:36 25.08297 119.95105 32209 ft 419 kts 221°
2026-05-04 11:36 25.03627 119.91269 32207 ft 419 kts 221°
2026-05-04 11:37 24.99158 119.87198 32218 ft 413 kts 231°
2026-05-04 11:37 24.95416 119.82397 32215 ft 412 kts 232°
2026-05-04 11:38 24.91682 119.77595 32212 ft 413 kts 232°
2026-05-04 11:38 24.87937 119.72799 32208 ft 413 kts 232°
2026-05-04 11:39 24.84190 119.68015 32239 ft 411 kts 233°
2026-05-04 11:41 24.71294 119.51533 32225 ft 403 kts 233°
2026-05-04 11:41 24.67633 119.46868 32211 ft 402 kts 233°
2026-05-04 11:42 24.63979 119.42204 32204 ft 402 kts 233°
2026-05-04 11:42 24.60327 119.37550 32202 ft 402 kts 233°
2026-05-04 11:43 24.56658 119.32901 32192 ft 402 kts 233°
2026-05-04 11:43 24.52990 119.28254 32188 ft 403 kts 233°
2026-05-04 11:44 24.49326 119.23595 32188 ft 403 kts 233°
2026-05-04 11:44 24.45659 119.18939 32183 ft 404 kts 233°
2026-05-04 11:45 24.41978 119.14276 32184 ft 404 kts 232°
2026-05-04 11:45 24.38290 119.09617 32178 ft 405 kts 232°
2026-05-04 11:46 24.34595 119.04952 32183 ft 405 kts 232°
2026-05-04 11:46 24.30889 119.00275 32186 ft 406 kts 232°
2026-05-04 11:47 24.27209 118.95630 32191 ft 406 kts 232°
2026-05-04 11:47 24.23494 118.90950 32181 ft 407 kts 232°
2026-05-04 11:48 24.19772 118.86263 32190 ft 408 kts 232°
2026-05-04 11:48 24.16047 118.81579 32176 ft 408 kts 232°
2026-05-04 11:49 24.12309 118.76888 32168 ft 409 kts 232°
2026-05-04 11:49 24.08577 118.72200 32173 ft 409 kts 232°
2026-05-04 11:50 24.04831 118.67500 32186 ft 410 kts 232°
2026-05-04 11:50 24.01080 118.62806 32186 ft 410 kts 232°
2026-05-04 11:51 23.97322 118.58105 32184 ft 411 kts 232°
2026-05-04 11:51 23.93560 118.53398 32185 ft 411 kts 232°
2026-05-04 11:52 23.89786 118.48691 32178 ft 412 kts 232°
2026-05-04 11:52 23.86014 118.43981 32179 ft 412 kts 232°
2026-05-04 11:53 23.82223 118.39283 32186 ft 412 kts 232°
2026-05-04 11:53 23.78409 118.34606 32181 ft 413 kts 232°
2026-05-04 11:55 23.63142 118.15838 32191 ft 414 kts 232°
2026-05-04 11:56 23.59317 118.11148 32184 ft 414 kts 232°
2026-05-04 11:56 23.55485 118.06460 32184 ft 414 kts 232°
2026-05-04 11:57 23.51669 118.01798 32181 ft 415 kts 232°
2026-05-04 11:57 23.47829 117.97108 32183 ft 415 kts 232°
2026-05-04 11:58 23.43987 117.92417 32178 ft 415 kts 232°
2026-05-04 11:58 23.40148 117.87723 32177 ft 416 kts 232°
2026-05-04 11:59 23.36293 117.83024 32183 ft 416 kts 232°
2026-05-04 11:59 23.32433 117.78327 32105 ft 417 kts 232°
2026-05-04 12:00 23.28575 117.73623 32093 ft 417 kts 232°
2026-05-04 12:00 23.24707 117.68915 32091 ft 418 kts 232°
2026-05-04 12:01 23.20829 117.64216 32091 ft 418 kts 231°
2026-05-04 12:02 23.07253 117.47741 32092 ft 418 kts 232°
2026-05-04 12:03 23.04063 117.43800 32095 ft 418 kts 232°
2026-05-04 12:03 23.00242 117.39032 32085 ft 418 kts 232°
2026-05-04 12:04 22.96416 117.34268 32072 ft 419 kts 232°
2026-05-04 12:04 22.92728 117.29396 32077 ft 417 kts 237°
2026-05-04 12:05 22.89309 117.24300 32080 ft 418 kts 237°
2026-05-04 12:05 22.85871 117.19207 32085 ft 418 kts 236°
2026-05-04 12:06 22.82440 117.14119 32083 ft 418 kts 237°
2026-05-04 12:06 22.79013 117.09021 32081 ft 418 kts 236°
2026-05-04 12:07 22.75583 117.03929 32071 ft 419 kts 236°
2026-05-04 12:07 22.72725 116.98491 32078 ft 415 kts 249°
2026-05-04 12:08 22.70598 116.92669 32074 ft 416 kts 249°
2026-05-04 12:08 22.68454 116.86853 32073 ft 416 kts 249°
2026-05-04 12:09 22.66308 116.81029 32071 ft 417 kts 249°
2026-05-04 12:09 22.64165 116.75198 32069 ft 417 kts 249°
2026-05-04 12:10 22.62013 116.69368 32070 ft 417 kts 249°
2026-05-04 12:10 22.59853 116.63541 31823 ft 418 kts 249°
2026-05-04 12:11 22.58769 116.60615 31581 ft 419 kts 249°
2026-05-04 12:11 22.57686 116.57688 31345 ft 420 kts 249°
2026-05-04 12:11 22.56602 116.54753 31108 ft 421 kts 248°
2026-05-04 12:11 22.55511 116.51803 30876 ft 422 kts 248°
2026-05-04 12:12 22.54416 116.48848 30644 ft 424 kts 248°
2026-05-04 12:12 22.53315 116.45889 30423 ft 425 kts 248°
2026-05-04 12:12 22.52207 116.42917 30193 ft 427 kts 248°
2026-05-04 12:12 22.51096 116.39934 29924 ft 428 kts 248°
2026-05-04 12:13 22.49987 116.36949 29669 ft 429 kts 248°
2026-05-04 12:14 22.42108 116.15804 27856 ft 437 kts 248°
2026-05-04 12:15 22.40965 116.12759 27604 ft 438 kts 248°
2026-05-04 12:15 22.39820 116.09704 27366 ft 439 kts 248°
2026-05-04 12:15 22.38677 116.06644 27117 ft 440 kts 248°
2026-05-04 12:15 22.37529 116.03571 26879 ft 441 kts 248°
2026-05-04 12:16 22.36380 116.00496 26635 ft 442 kts 248°
2026-05-04 12:16 22.35227 115.97411 26398 ft 443 kts 248°
2026-05-04 12:16 22.34062 115.94317 26158 ft 444 kts 248°
2026-05-04 12:16 22.32892 115.91221 25909 ft 446 kts 248°
2026-05-04 12:17 22.31720 115.88115 25464 ft 447 kts 248°
2026-05-04 12:17 22.30556 115.85000 25032 ft 448 kts 250°
2026-05-04 12:17 22.29743 115.81752 24588 ft 450 kts 260°
2026-05-04 12:17 22.29496 115.78376 24149 ft 452 kts 268°
2026-05-04 12:18 22.29420 115.75029 23721 ft 451 kts 268°
2026-05-04 12:18 22.29337 115.71647 23217 ft 449 kts 268°
2026-05-04 12:18 22.29250 115.68291 22701 ft 446 kts 268°
2026-05-04 12:18 22.29159 115.64946 22196 ft 443 kts 268°
2026-05-04 12:19 22.29069 115.61630 21700 ft 440 kts 268°
2026-05-04 12:19 22.28974 115.58335 21214 ft 437 kts 268°
2026-05-04 12:19 22.28877 115.55065 20737 ft 435 kts 268°
2026-05-04 12:19 22.28782 115.51817 20265 ft 432 kts 268°
2026-05-04 12:20 22.28689 115.48575 19794 ft 429 kts 268°
2026-05-04 12:20 22.28600 115.45368 19337 ft 427 kts 268°
2026-05-04 12:20 22.28511 115.42173 18889 ft 425 kts 268°
2026-05-04 12:20 22.28300 115.39006 18439 ft 422 kts 259°
2026-05-04 12:21 22.27506 115.35970 17953 ft 419 kts 252°
2026-05-04 12:21 22.26615 115.32990 17432 ft 416 kts 252°
2026-05-04 12:21 22.25720 115.30026 16936 ft 413 kts 252°
2026-05-04 12:21 22.24831 115.27095 16432 ft 410 kts 252°
2026-05-04 12:22 22.23946 115.24183 15951 ft 407 kts 252°
2026-05-04 12:22 22.23064 115.21291 15474 ft 403 kts 252°
2026-05-04 12:22 22.22191 115.18425 15004 ft 400 kts 252°
2026-05-04 12:22 22.21329 115.15586 14541 ft 397 kts 252°
2026-05-04 12:23 22.20474 115.12761 14085 ft 394 kts 252°
2026-05-04 12:23 22.19624 115.09959 13604 ft 391 kts 252°
2026-05-04 12:23 22.18778 115.07181 13082 ft 389 kts 252°
2026-05-04 12:23 22.17940 115.04420 12593 ft 386 kts 252°
2026-05-04 12:24 22.17106 115.01670 12097 ft 384 kts 252°
2026-05-04 12:24 22.16279 114.98945 11607 ft 379 kts 252°
2026-05-04 12:24 22.15466 114.96273 11135 ft 371 kts 252°
2026-05-04 12:24 22.14678 114.93687 10984 ft 355 kts 252°
2026-05-04 12:25 22.13920 114.91212 10866 ft 340 kts 252°
2026-05-04 12:25 22.13196 114.88845 10749 ft 325 kts 252°
2026-05-04 12:25 22.12502 114.86577 10625 ft 312 kts 252°
2026-05-04 12:25 22.11836 114.84401 10512 ft 299 kts 252°
2026-05-04 12:26 22.11196 114.82314 10390 ft 287 kts 252°
2026-05-04 12:26 22.10581 114.80306 10260 ft 277 kts 252°
2026-05-04 12:26 22.09983 114.78356 9993 ft 272 kts 252°
2026-05-04 12:26 22.09392 114.76424 9627 ft 270 kts 252°
2026-05-04 12:27 22.08805 114.74504 9241 ft 269 kts 252°
2026-05-04 12:27 22.08313 114.72573 8844 ft 267 kts 264°
2026-05-04 12:27 22.08304 114.70571 8445 ft 266 kts 271°
2026-05-04 12:27 22.08358 114.68580 8057 ft 265 kts 271°
2026-05-04 12:28 22.08415 114.66596 7673 ft 265 kts 271°
2026-05-04 12:28 22.08470 114.64641 7298 ft 264 kts 271°
2026-05-04 12:28 22.08524 114.62639 6889 ft 264 kts 271°
2026-05-04 12:28 22.08580 114.60661 6504 ft 264 kts 271°
2026-05-04 12:29 22.08638 114.58708 6111 ft 264 kts 271°
2026-05-04 12:29 22.08697 114.56728 6014 ft 265 kts 271°
2026-05-04 12:29 22.08755 114.54732 6024 ft 268 kts 271°
2026-05-04 12:29 22.08812 114.52728 6026 ft 267 kts 271°
2026-05-04 12:30 22.08866 114.50726 6027 ft 267 kts 271°
2026-05-04 12:30 22.08919 114.48724 6030 ft 267 kts 271°
2026-05-04 12:30 22.08972 114.46726 6029 ft 267 kts 271°
2026-05-04 12:30 22.09027 114.44718 6027 ft 267 kts 271°
2026-05-04 12:31 22.09083 114.42715 6028 ft 267 kts 271°
2026-05-04 12:31 22.09139 114.40714 6029 ft 267 kts 271°
2026-05-04 12:31 22.09192 114.38717 6029 ft 267 kts 271°
2026-05-04 12:31 22.09245 114.36715 6029 ft 267 kts 271°
2026-05-04 12:32 22.09297 114.34720 6030 ft 266 kts 271°
2026-05-04 12:32 22.09401 114.30741 6027 ft 265 kts 271°
2026-05-04 12:32 22.09454 114.28753 6027 ft 265 kts 271°
2026-05-04 12:33 22.09505 114.26766 6030 ft 265 kts 271°
2026-05-04 12:33 22.09554 114.24776 6030 ft 266 kts 271°
2026-05-04 12:33 22.09604 114.22788 6025 ft 265 kts 271°
2026-05-04 12:33 22.09656 114.20797 6028 ft 266 kts 271°
2026-05-04 12:34 22.09707 114.18804 6027 ft 266 kts 271°
2026-05-04 12:34 22.09759 114.16818 5856 ft 264 kts 271°
2026-05-04 12:34 22.09811 114.14844 5442 ft 264 kts 271°
2026-05-04 12:34 22.09861 114.12861 5005 ft 265 kts 271°
2026-05-04 12:35 22.09912 114.10866 4556 ft 268 kts 271°
2026-05-04 12:35 22.09963 114.08853 4120 ft 269 kts 271°
2026-05-04 12:35 22.10013 114.06831 3704 ft 271 kts 271°
2026-05-04 12:35 22.10063 114.04801 3309 ft 271 kts 271°
2026-05-04 12:36 22.10111 114.02765 3028 ft 271 kts 271°
2026-05-04 12:36 22.10160 114.00705 3019 ft 276 kts 271°
2026-05-04 12:36 22.10212 113.98634 3013 ft 276 kts 271°
2026-05-04 12:36 22.10263 113.96560 3015 ft 277 kts 271°
2026-05-04 12:37 22.10312 113.94488 3017 ft 277 kts 271°
2026-05-04 12:37 22.10358 113.92606 3017 ft 276 kts 271°
2026-05-04 12:37 22.10410 113.90539 3015 ft 275 kts 271°
2026-05-04 12:37 22.10461 113.88475 3013 ft 275 kts 271°
2026-05-04 12:38 22.10511 113.86419 3027 ft 270 kts 271°
2026-05-04 12:38 22.10555 113.84464 3027 ft 252 kts 271°
2026-05-04 12:38 22.10594 113.82656 3027 ft 233 kts 271°
2026-05-04 12:38 22.10631 113.80968 2834 ft 219 kts 271°
2026-05-04 12:39 22.10891 113.79361 2348 ft 218 kts 289°
2026-05-04 12:39 22.11588 113.77923 2033 ft 216 kts 308°
2026-05-04 12:39 22.12625 113.76773 2003 ft 207 kts 325°
2026-05-04 12:39 22.13830 113.76014 2006 ft 196 kts 339°
2026-05-04 12:40 22.15063 113.75402 2010 ft 194 kts 339°
2026-05-04 12:40 22.16286 113.74791 2009 ft 193 kts 339°
2026-05-04 12:40 22.17503 113.74184 2012 ft 193 kts 339°
2026-05-04 12:40 22.18721 113.73577 2016 ft 193 kts 338°
2026-05-04 12:41 22.19947 113.72963 2019 ft 196 kts 339°
2026-05-04 12:41 22.21187 113.72343 2017 ft 196 kts 339°
2026-05-04 12:41 22.22446 113.71828 2003 ft 191 kts 355°
2026-05-04 12:41 22.23736 113.71911 2004 ft 184 kts 21°
2026-05-04 12:42 22.24828 113.72571 2008 ft 179 kts 44°
2026-05-04 12:42 22.25767 113.73458 2025 ft 180 kts 44°
2026-05-04 12:42 22.26718 113.74341 2028 ft 181 kts 44°
2026-05-04 12:42 22.27666 113.75234 2029 ft 180 kts 48°
2026-05-04 12:43 22.28322 113.76354 2028 ft 172 kts 71°
2026-05-04 12:43 22.28691 113.77491 2004 ft 151 kts 72°
2026-05-04 12:43 22.29025 113.78521 1848 ft 142 kts 73°
2026-05-04 12:43 22.29346 113.79516 1686 ft 139 kts 72°
2026-05-04 12:44 22.29661 113.80492 1497 ft 137 kts 72°
2026-05-04 12:44 22.29974 113.81460 1331 ft 137 kts 73°
2026-05-04 12:44 22.30289 113.82435 1146 ft 137 kts 73°
2026-05-04 12:44 22.30604 113.83411 975 ft 138 kts 71°
2026-05-04 12:45 22.30921 113.84394 808 ft 139 kts 72°
2026-05-04 12:45 22.31241 113.85384 629 ft 140 kts 73°
2026-05-04 12:45 22.31556 113.86358 457 ft 139 kts 71°
2026-05-04 12:45 22.31773 113.87027 319 ft 139 kts 72°
2026-05-04 12:46 22.32182 113.88323 48 ft 136 kts 73°
2026-05-04 12:46 22.32451 113.89187 36 ft 94 kts 70°
2026-05-04 12:46 22.32612 113.89648 37 ft 45 kts 69°
2026-05-04 12:46 22.32666 113.89801 38 ft 25 kts 70°
2026-05-04 12:47 22.32709 113.90005 37 ft 18 kts 87°
2026-05-04 12:47 22.32702 113.90088 37 ft 15 kts 98°
2026-05-04 12:47 22.32686 113.90178 38 ft 10 kts 102°